sensor_id;sensor_type;location;lat;lon;timestamp;P1;durP1;ratioP1;P2;durP2;ratioP2
75358;SDS011;64046;51.978;5.934;2024-03-06T00:01:45;25.70;;;16.35;;
75358;SDS011;64046;51.978;5.934;2024-03-06T00:04:14;21.35;;;13.85;;
75358;SDS011;64046;51.978;5.934;2024-03-06T00:06:44;20.48;;;14.45;;
75358;SDS011;64046;51.978;5.934;2024-03-06T00:09:13;22.65;;;13.95;;
75358;SDS011;64046;51.978;5.934;2024-03-06T00:11:47;20.38;;;13.15;;
75358;SDS011;64046;51.978;5.934;2024-03-06T00:14:17;21.00;;;13.25;;
75358;SDS011;64046;51.978;5.934;2024-03-06T00:16:47;23.08;;;13.93;;
75358;SDS011;64046;51.978;5.934;2024-03-06T00:19:17;19.20;;;12.98;;
75358;SDS011;64046;51.978;5.934;2024-03-06T00:21:47;21.52;;;13.05;;
75358;SDS011;64046;51.978;5.934;2024-03-06T00:24:17;22.45;;;13.82;;
75358;SDS011;64046;51.978;5.934;2024-03-06T00:26:49;22.52;;;13.38;;
75358;SDS011;64046;51.978;5.934;2024-03-06T00:29:18;21.05;;;14.32;;
75358;SDS011;64046;51.978;5.934;2024-03-06T00:31:48;24.42;;;13.68;;
75358;SDS011;64046;51.978;5.934;2024-03-06T00:34:17;26.00;;;16.95;;
75358;SDS011;64046;51.978;5.934;2024-03-06T00:36:47;25.25;;;14.18;;
75358;SDS011;64046;51.978;5.934;2024-03-06T00:39:16;20.42;;;13.60;;
75358;SDS011;64046;51.978;5.934;2024-03-06T00:41:45;20.58;;;13.38;;
75358;SDS011;64046;51.978;5.934;2024-03-06T00:44:17;25.00;;;16.23;;
75358;SDS011;64046;51.978;5.934;2024-03-06T00:46:47;25.15;;;15.57;;
75358;SDS011;64046;51.978;5.934;2024-03-06T00:49:16;24.65;;;14.40;;
75358;SDS011;64046;51.978;5.934;2024-03-06T00:51:45;24.40;;;15.15;;
75358;SDS011;64046;51.978;5.934;2024-03-06T00:54:15;21.98;;;13.70;;
75358;SDS011;64046;51.978;5.934;2024-03-06T00:56:44;24.23;;;15.05;;
75358;SDS011;64046;51.978;5.934;2024-03-06T00:59:16;26.65;;;16.33;;
75358;SDS011;64046;51.978;5.934;2024-03-06T01:01:46;21.25;;;13.40;;
75358;SDS011;64046;51.978;5.934;2024-03-06T01:04:15;22.70;;;13.82;;
75358;SDS011;64046;51.978;5.934;2024-03-06T01:06:44;19.88;;;13.35;;
75358;SDS011;64046;51.978;5.934;2024-03-06T01:09:14;22.73;;;14.13;;
75358;SDS011;64046;51.978;5.934;2024-03-06T01:11:43;21.65;;;14.35;;
75358;SDS011;64046;51.978;5.934;2024-03-06T01:14:17;20.77;;;13.88;;
75358;SDS011;64046;51.978;5.934;2024-03-06T01:16:46;20.40;;;13.68;;
75358;SDS011;64046;51.978;5.934;2024-03-06T01:19:15;21.27;;;14.40;;
75358;SDS011;64046;51.978;5.934;2024-03-06T01:21:45;25.55;;;15.65;;
75358;SDS011;64046;51.978;5.934;2024-03-06T01:24:14;28.35;;;16.55;;
75358;SDS011;64046;51.978;5.934;2024-03-06T01:26:44;31.27;;;17.60;;
75358;SDS011;64046;51.978;5.934;2024-03-06T01:29:13;25.33;;;15.82;;
75358;SDS011;64046;51.978;5.934;2024-03-06T01:31:46;21.58;;;13.80;;
75358;SDS011;64046;51.978;5.934;2024-03-06T01:34:15;22.63;;;13.77;;
75358;SDS011;64046;51.978;5.934;2024-03-06T01:36:45;23.50;;;16.10;;
75358;SDS011;64046;51.978;5.934;2024-03-06T01:39:14;24.08;;;15.18;;
75358;SDS011;64046;51.978;5.934;2024-03-06T01:41:47;23.38;;;14.88;;
75358;SDS011;64046;51.978;5.934;2024-03-06T01:44:19;26.48;;;16.05;;
75358;SDS011;64046;51.978;5.934;2024-03-06T01:46:51;23.55;;;15.20;;
75358;SDS011;64046;51.978;5.934;2024-03-06T01:49:20;20.15;;;13.50;;
75358;SDS011;64046;51.978;5.934;2024-03-06T01:51:51;25.05;;;16.33;;
75358;SDS011;64046;51.978;5.934;2024-03-06T01:54:22;23.17;;;15.05;;
75358;SDS011;64046;51.978;5.934;2024-03-06T01:56:52;25.05;;;16.08;;
75358;SDS011;64046;51.978;5.934;2024-03-06T01:59:23;21.00;;;13.88;;
75358;SDS011;64046;51.978;5.934;2024-03-06T02:01:57;21.17;;;13.40;;
75358;SDS011;64046;51.978;5.934;2024-03-06T02:04:27;24.45;;;16.17;;
75358;SDS011;64046;51.978;5.934;2024-03-06T02:06:56;19.80;;;13.70;;
75358;SDS011;64046;51.978;5.934;2024-03-06T02:09:26;27.98;;;16.08;;
75358;SDS011;64046;51.978;5.934;2024-03-06T02:11:55;29.05;;;16.60;;
75358;SDS011;64046;51.978;5.934;2024-03-06T02:14:24;32.30;;;20.13;;
75358;SDS011;64046;51.978;5.934;2024-03-06T02:16:58;25.73;;;16.17;;
75358;SDS011;64046;51.978;5.934;2024-03-06T02:19:37;24.13;;;16.52;;
75358;SDS011;64046;51.978;5.934;2024-03-06T02:22:09;19.02;;;12.82;;
75358;SDS011;64046;51.978;5.934;2024-03-06T02:24:48;19.45;;;13.57;;
75358;SDS011;64046;51.978;5.934;2024-03-06T02:27:17;20.02;;;13.18;;
75358;SDS011;64046;51.978;5.934;2024-03-06T02:29:47;25.02;;;14.70;;
75358;SDS011;64046;51.978;5.934;2024-03-06T02:32:16;21.70;;;12.65;;
75358;SDS011;64046;51.978;5.934;2024-03-06T02:34:46;22.30;;;13.52;;
75358;SDS011;64046;51.978;5.934;2024-03-06T02:37:18;22.55;;;14.63;;
75358;SDS011;64046;51.978;5.934;2024-03-06T02:39:48;19.38;;;12.80;;
75358;SDS011;64046;51.978;5.934;2024-03-06T02:42:17;23.17;;;14.35;;
75358;SDS011;64046;51.978;5.934;2024-03-06T02:44:47;24.90;;;14.63;;
75358;SDS011;64046;51.978;5.934;2024-03-06T02:47:16;22.63;;;14.82;;
75358;SDS011;64046;51.978;5.934;2024-03-06T02:49:45;22.48;;;14.48;;
75358;SDS011;64046;51.978;5.934;2024-03-06T02:52:14;25.02;;;15.75;;
75358;SDS011;64046;51.978;5.934;2024-03-06T02:54:47;25.98;;;16.10;;
75358;SDS011;64046;51.978;5.934;2024-03-06T02:57:16;23.02;;;15.63;;
75358;SDS011;64046;51.978;5.934;2024-03-06T02:59:45;22.58;;;14.75;;
75358;SDS011;64046;51.978;5.934;2024-03-06T03:02:15;27.95;;;16.38;;
75358;SDS011;64046;51.978;5.934;2024-03-06T03:04:45;25.77;;;15.32;;
75358;SDS011;64046;51.978;5.934;2024-03-06T03:07:14;23.95;;;14.98;;
75358;SDS011;64046;51.978;5.934;2024-03-06T03:09:46;25.27;;;16.58;;
75358;SDS011;64046;51.978;5.934;2024-03-06T03:12:16;29.33;;;17.38;;
75358;SDS011;64046;51.978;5.934;2024-03-06T03:14:45;23.02;;;14.82;;
75358;SDS011;64046;51.978;5.934;2024-03-06T03:17:14;24.48;;;15.50;;
75358;SDS011;64046;51.978;5.934;2024-03-06T03:19:45;24.75;;;14.27;;
75358;SDS011;64046;51.978;5.934;2024-03-06T03:22:14;24.67;;;15.18;;
75358;SDS011;64046;51.978;5.934;2024-03-06T03:24:43;28.35;;;16.52;;
75358;SDS011;64046;51.978;5.934;2024-03-06T03:27:16;25.73;;;16.45;;
75358;SDS011;64046;51.978;5.934;2024-03-06T03:29:45;32.88;;;17.85;;
75358;SDS011;64046;51.978;5.934;2024-03-06T03:32:14;23.83;;;14.20;;
75358;SDS011;64046;51.978;5.934;2024-03-06T03:34:44;25.65;;;16.45;;
75358;SDS011;64046;51.978;5.934;2024-03-06T03:37:14;30.70;;;16.83;;
75358;SDS011;64046;51.978;5.934;2024-03-06T03:39:47;29.80;;;18.00;;
75358;SDS011;64046;51.978;5.934;2024-03-06T03:42:16;24.50;;;14.73;;
75358;SDS011;64046;51.978;5.934;2024-03-06T03:44:45;23.88;;;15.45;;
75358;SDS011;64046;51.978;5.934;2024-03-06T03:47:14;31.58;;;19.33;;
75358;SDS011;64046;51.978;5.934;2024-03-06T03:49:44;27.58;;;16.10;;
75358;SDS011;64046;51.978;5.934;2024-03-06T03:52:14;27.42;;;15.55;;
75358;SDS011;64046;51.978;5.934;2024-03-06T03:54:44;23.90;;;15.38;;
75358;SDS011;64046;51.978;5.934;2024-03-06T03:57:16;23.35;;;14.77;;
75358;SDS011;64046;51.978;5.934;2024-03-06T03:59:45;27.80;;;16.50;;
75358;SDS011;64046;51.978;5.934;2024-03-06T04:02:15;24.75;;;14.70;;
75358;SDS011;64046;51.978;5.934;2024-03-06T04:04:44;26.25;;;16.20;;
75358;SDS011;64046;51.978;5.934;2024-03-06T04:07:14;23.77;;;15.20;;
75358;SDS011;64046;51.978;5.934;2024-03-06T04:09:47;28.77;;;17.73;;
75358;SDS011;64046;51.978;5.934;2024-03-06T04:12:17;24.63;;;16.00;;
75358;SDS011;64046;51.978;5.934;2024-03-06T04:14:46;25.90;;;16.50;;
75358;SDS011;64046;51.978;5.934;2024-03-06T04:17:15;24.27;;;15.48;;
75358;SDS011;64046;51.978;5.934;2024-03-06T04:19:45;26.70;;;15.55;;
75358;SDS011;64046;51.978;5.934;2024-03-06T04:22:14;35.13;;;19.75;;
75358;SDS011;64046;51.978;5.934;2024-03-06T04:24:49;25.88;;;16.25;;
75358;SDS011;64046;51.978;5.934;2024-03-06T04:27:19;22.52;;;15.02;;
75358;SDS011;64046;51.978;5.934;2024-03-06T04:29:48;30.60;;;18.65;;
75358;SDS011;64046;51.978;5.934;2024-03-06T04:32:18;25.15;;;16.02;;
75358;SDS011;64046;51.978;5.934;2024-03-06T04:34:48;25.15;;;15.07;;
75358;SDS011;64046;51.978;5.934;2024-03-06T04:37:17;24.95;;;15.88;;
75358;SDS011;64046;51.978;5.934;2024-03-06T04:39:46;26.50;;;16.52;;
75358;SDS011;64046;51.978;5.934;2024-03-06T04:42:18;20.80;;;13.40;;
75358;SDS011;64046;51.978;5.934;2024-03-06T04:44:48;25.90;;;15.85;;
75358;SDS011;64046;51.978;5.934;2024-03-06T04:47:17;27.25;;;16.95;;
75358;SDS011;64046;51.978;5.934;2024-03-06T04:49:46;26.23;;;16.65;;
75358;SDS011;64046;51.978;5.934;2024-03-06T04:52:16;26.55;;;16.80;;
75358;SDS011;64046;51.978;5.934;2024-03-06T04:54:45;29.63;;;16.20;;
75358;SDS011;64046;51.978;5.934;2024-03-06T04:57:14;29.58;;;15.25;;
75358;SDS011;64046;51.978;5.934;2024-03-06T04:59:46;27.25;;;15.80;;
75358;SDS011;64046;51.978;5.934;2024-03-06T05:02:16;28.45;;;17.45;;
75358;SDS011;64046;51.978;5.934;2024-03-06T05:04:45;24.83;;;15.30;;
75358;SDS011;64046;51.978;5.934;2024-03-06T05:07:15;38.78;;;16.98;;
75358;SDS011;64046;51.978;5.934;2024-03-06T05:09:44;46.00;;;17.83;;
75358;SDS011;64046;51.978;5.934;2024-03-06T05:12:13;76.97;;;21.25;;
75358;SDS011;64046;51.978;5.934;2024-03-06T05:14:45;69.35;;;19.27;;
75358;SDS011;64046;51.978;5.934;2024-03-06T05:17:15;78.20;;;18.38;;
75358;SDS011;64046;51.978;5.934;2024-03-06T05:19:45;126.63;;;20.27;;
75358;SDS011;64046;51.978;5.934;2024-03-06T05:22:15;176.35;;;21.75;;
75358;SDS011;64046;51.978;5.934;2024-03-06T05:24:45;104.15;;;17.48;;
75358;SDS011;64046;51.978;5.934;2024-03-06T05:27:14;76.70;;;17.95;;
75358;SDS011;64046;51.978;5.934;2024-03-06T05:29:46;65.50;;;15.88;;
75358;SDS011;64046;51.978;5.934;2024-03-06T05:32:15;63.67;;;18.17;;
75358;SDS011;64046;51.978;5.934;2024-03-06T05:34:45;70.03;;;15.50;;
75358;SDS011;64046;51.978;5.934;2024-03-06T05:37:14;83.50;;;17.70;;
75358;SDS011;64046;51.978;5.934;2024-03-06T05:39:45;75.68;;;19.08;;
75358;SDS011;64046;51.978;5.934;2024-03-06T05:42:15;78.20;;;16.45;;
75358;SDS011;64046;51.978;5.934;2024-03-06T05:44:47;138.65;;;21.23;;
75358;SDS011;64046;51.978;5.934;2024-03-06T05:47:20;81.95;;;19.38;;
75358;SDS011;64046;51.978;5.934;2024-03-06T05:49:49;79.88;;;16.85;;
75358;SDS011;64046;51.978;5.934;2024-03-06T05:52:18;46.00;;;14.80;;
75358;SDS011;64046;51.978;5.934;2024-03-06T05:54:48;45.72;;;16.83;;
75358;SDS011;64046;51.978;5.934;2024-03-06T05:57:17;102.57;;;16.98;;
75358;SDS011;64046;51.978;5.934;2024-03-06T05:59:49;140.65;;;19.00;;
75358;SDS011;64046;51.978;5.934;2024-03-06T06:02:19;89.55;;;15.85;;
75358;SDS011;64046;51.978;5.934;2024-03-06T06:04:48;36.70;;;12.05;;
75358;SDS011;64046;51.978;5.934;2024-03-06T06:07:18;104.07;;;18.63;;
75358;SDS011;64046;51.978;5.934;2024-03-06T06:09:47;117.20;;;20.88;;
75358;SDS011;64046;51.978;5.934;2024-03-06T06:12:17;95.47;;;18.33;;
75358;SDS011;64046;51.978;5.934;2024-03-06T06:14:46;115.38;;;18.60;;
75358;SDS011;64046;51.978;5.934;2024-03-06T06:17:18;41.60;;;13.45;;
75358;SDS011;64046;51.978;5.934;2024-03-06T06:19:48;40.72;;;13.60;;
75358;SDS011;64046;51.978;5.934;2024-03-06T06:22:18;35.15;;;13.23;;
75358;SDS011;64046;51.978;5.934;2024-03-06T06:24:47;30.38;;;14.18;;
75358;SDS011;64046;51.978;5.934;2024-03-06T06:27:17;41.80;;;13.15;;
75358;SDS011;64046;51.978;5.934;2024-03-06T06:29:46;44.83;;;13.52;;
75358;SDS011;64046;51.978;5.934;2024-03-06T06:32:18;81.30;;;16.85;;
75358;SDS011;64046;51.978;5.934;2024-03-06T06:34:48;51.20;;;13.77;;
75358;SDS011;64046;51.978;5.934;2024-03-06T06:37:17;30.42;;;13.55;;
75358;SDS011;64046;51.978;5.934;2024-03-06T06:39:47;58.13;;;13.98;;
75358;SDS011;64046;51.978;5.934;2024-03-06T06:42:17;44.90;;;12.65;;
75358;SDS011;64046;51.978;5.934;2024-03-06T06:44:46;26.90;;;11.75;;
75358;SDS011;64046;51.978;5.934;2024-03-06T06:47:16;33.33;;;12.20;;
75358;SDS011;64046;51.978;5.934;2024-03-06T06:49:48;57.97;;;14.32;;
75358;SDS011;64046;51.978;5.934;2024-03-06T06:52:17;50.20;;;14.20;;
75358;SDS011;64046;51.978;5.934;2024-03-06T06:54:47;41.38;;;14.15;;
75358;SDS011;64046;51.978;5.934;2024-03-06T06:57:17;33.65;;;12.20;;
75358;SDS011;64046;51.978;5.934;2024-03-06T06:59:47;30.40;;;11.27;;
75358;SDS011;64046;51.978;5.934;2024-03-06T07:02:19;38.63;;;11.70;;
75358;SDS011;64046;51.978;5.934;2024-03-06T07:04:48;55.22;;;14.73;;
75358;SDS011;64046;51.978;5.934;2024-03-06T07:07:18;25.42;;;13.88;;
75358;SDS011;64046;51.978;5.934;2024-03-06T07:09:47;41.83;;;13.40;;
75358;SDS011;64046;51.978;5.934;2024-03-06T07:12:17;26.58;;;11.55;;
75358;SDS011;64046;51.978;5.934;2024-03-06T07:14:47;56.95;;;13.73;;
75358;SDS011;64046;51.978;5.934;2024-03-06T07:17:19;28.70;;;11.82;;
75358;SDS011;64046;51.978;5.934;2024-03-06T07:19:49;23.45;;;12.20;;
75358;SDS011;64046;51.978;5.934;2024-03-06T07:22:19;30.25;;;13.15;;
75358;SDS011;64046;51.978;5.934;2024-03-06T07:24:48;30.67;;;12.55;;
75358;SDS011;64046;51.978;5.934;2024-03-06T07:27:18;51.25;;;15.32;;
75358;SDS011;64046;51.978;5.934;2024-03-06T07:29:47;36.25;;;14.40;;
75358;SDS011;64046;51.978;5.934;2024-03-06T07:32:16;30.88;;;13.05;;
75358;SDS011;64046;51.978;5.934;2024-03-06T07:34:48;33.65;;;13.52;;
75358;SDS011;64046;51.978;5.934;2024-03-06T07:37:17;29.48;;;12.75;;
75358;SDS011;64046;51.978;5.934;2024-03-06T07:39:47;24.33;;;13.32;;
75358;SDS011;64046;51.978;5.934;2024-03-06T07:42:17;36.78;;;13.05;;
75358;SDS011;64046;51.978;5.934;2024-03-06T07:44:47;103.95;;;23.08;;
75358;SDS011;64046;51.978;5.934;2024-03-06T07:47:16;37.10;;;14.48;;
75358;SDS011;64046;51.978;5.934;2024-03-06T07:49:48;35.15;;;15.32;;
75358;SDS011;64046;51.978;5.934;2024-03-06T07:52:18;32.33;;;13.15;;
75358;SDS011;64046;51.978;5.934;2024-03-06T07:54:47;67.45;;;14.52;;
75358;SDS011;64046;51.978;5.934;2024-03-06T07:57:17;52.72;;;14.10;;
75358;SDS011;64046;51.978;5.934;2024-03-06T07:59:47;48.85;;;12.85;;
75358;SDS011;64046;51.978;5.934;2024-03-06T08:02:20;28.92;;;14.60;;
75358;SDS011;64046;51.978;5.934;2024-03-06T08:04:52;127.68;;;21.35;;
75358;SDS011;64046;51.978;5.934;2024-03-06T08:07:21;33.22;;;14.30;;
75358;SDS011;64046;51.978;5.934;2024-03-06T08:09:51;43.42;;;14.35;;
75358;SDS011;64046;51.978;5.934;2024-03-06T08:12:20;123.95;;;21.52;;
75358;SDS011;64046;51.978;5.934;2024-03-06T08:14:49;101.00;;;17.80;;
75358;SDS011;64046;51.978;5.934;2024-03-06T08:17:20;96.93;;;19.50;;
75358;SDS011;64046;51.978;5.934;2024-03-06T08:19:52;65.05;;;18.63;;
75358;SDS011;64046;51.978;5.934;2024-03-06T08:22:21;39.88;;;17.50;;
75358;SDS011;64046;51.978;5.934;2024-03-06T08:24:51;106.60;;;23.17;;
75358;SDS011;64046;51.978;5.934;2024-03-06T08:27:21;96.13;;;22.13;;
75358;SDS011;64046;51.978;5.934;2024-03-06T08:29:50;68.38;;;18.35;;
75358;SDS011;64046;51.978;5.934;2024-03-06T08:32:20;175.00;;;21.75;;
75358;SDS011;64046;51.978;5.934;2024-03-06T08:34:52;51.30;;;19.75;;
75358;SDS011;64046;51.978;5.934;2024-03-06T08:37:21;66.65;;;19.85;;
75358;SDS011;64046;51.978;5.934;2024-03-06T08:39:51;101.72;;;21.20;;
75358;SDS011;64046;51.978;5.934;2024-03-06T08:42:20;112.80;;;26.92;;
75358;SDS011;64046;51.978;5.934;2024-03-06T08:44:50;196.48;;;33.97;;
75358;SDS011;64046;51.978;5.934;2024-03-06T08:47:19;193.68;;;35.53;;
75358;SDS011;64046;51.978;5.934;2024-03-06T08:49:51;117.22;;;22.30;;
75358;SDS011;64046;51.978;5.934;2024-03-06T08:52:21;166.85;;;30.38;;
75358;SDS011;64046;51.978;5.934;2024-03-06T08:54:50;93.53;;;27.17;;
75358;SDS011;64046;51.978;5.934;2024-03-06T08:57:20;226.27;;;38.72;;
75358;SDS011;64046;51.978;5.934;2024-03-06T08:59:52;170.35;;;33.50;;
75358;SDS011;64046;51.978;5.934;2024-03-06T09:02:21;91.10;;;24.23;;
75358;SDS011;64046;51.978;5.934;2024-03-06T09:04:54;75.18;;;25.90;;
75358;SDS011;64046;51.978;5.934;2024-03-06T09:07:24;94.47;;;26.70;;
75358;SDS011;64046;51.978;5.934;2024-03-06T09:09:53;63.33;;;22.38;;
75358;SDS011;64046;51.978;5.934;2024-03-06T09:12:23;90.35;;;26.02;;
75358;SDS011;64046;51.978;5.934;2024-03-06T09:14:52;54.90;;;23.88;;
75358;SDS011;64046;51.978;5.934;2024-03-06T09:17:22;57.60;;;22.88;;
75358;SDS011;64046;51.978;5.934;2024-03-06T09:19:54;88.07;;;30.92;;
75358;SDS011;64046;51.978;5.934;2024-03-06T09:22:24;55.35;;;25.30;;
75358;SDS011;64046;51.978;5.934;2024-03-06T09:24:56;77.07;;;28.02;;
75358;SDS011;64046;51.978;5.934;2024-03-06T09:27:26;55.72;;;28.67;;
75358;SDS011;64046;51.978;5.934;2024-03-06T09:29:55;48.08;;;23.98;;
75358;SDS011;64046;51.978;5.934;2024-03-06T09:32:25;55.45;;;26.83;;
75358;SDS011;64046;51.978;5.934;2024-03-06T09:34:57;43.47;;;24.25;;
75358;SDS011;64046;51.978;5.934;2024-03-06T09:37:27;52.70;;;25.77;;
75358;SDS011;64046;51.978;5.934;2024-03-06T09:39:56;50.42;;;24.50;;
75358;SDS011;64046;51.978;5.934;2024-03-06T09:42:25;59.97;;;27.27;;
75358;SDS011;64046;51.978;5.934;2024-03-06T09:44:55;53.33;;;26.67;;
75358;SDS011;64046;51.978;5.934;2024-03-06T09:47:25;57.60;;;28.63;;
75358;SDS011;64046;51.978;5.934;2024-03-06T09:50:00;54.13;;;27.23;;
75358;SDS011;64046;51.978;5.934;2024-03-06T09:52:32;64.05;;;29.55;;
75358;SDS011;64046;51.978;5.934;2024-03-06T09:55:03;49.53;;;24.35;;
75358;SDS011;64046;51.978;5.934;2024-03-06T09:57:35;47.28;;;24.52;;
75358;SDS011;64046;51.978;5.934;2024-03-06T10:00:06;49.17;;;25.70;;
75358;SDS011;64046;51.978;5.934;2024-03-06T10:02:38;64.57;;;29.52;;
75358;SDS011;64046;51.978;5.934;2024-03-06T10:05:23;52.65;;;25.50;;
75358;SDS011;64046;51.978;5.934;2024-03-06T10:07:53;57.58;;;29.15;;
75358;SDS011;64046;51.978;5.934;2024-03-06T10:10:22;61.50;;;30.00;;
75358;SDS011;64046;51.978;5.934;2024-03-06T10:12:52;59.35;;;28.05;;
75358;SDS011;64046;51.978;5.934;2024-03-06T10:15:23;68.72;;;31.15;;
75358;SDS011;64046;51.978;5.934;2024-03-06T10:17:55;59.05;;;30.45;;
75358;SDS011;64046;51.978;5.934;2024-03-06T10:20:42;63.25;;;31.35;;
75358;SDS011;64046;51.978;5.934;2024-03-06T10:23:12;64.47;;;30.40;;
75358;SDS011;64046;51.978;5.934;2024-03-06T10:25:42;56.63;;;29.50;;
75358;SDS011;64046;51.978;5.934;2024-03-06T10:28:12;57.92;;;30.30;;
75358;SDS011;64046;51.978;5.934;2024-03-06T10:30:42;50.58;;;25.27;;
75358;SDS011;64046;51.978;5.934;2024-03-06T10:33:11;48.33;;;23.73;;
75358;SDS011;64046;51.978;5.934;2024-03-06T10:35:45;63.78;;;30.85;;
75358;SDS011;64046;51.978;5.934;2024-03-06T10:38:16;67.25;;;32.90;;
75358;SDS011;64046;51.978;5.934;2024-03-06T10:40:48;48.85;;;25.25;;
75358;SDS011;64046;51.978;5.934;2024-03-06T10:43:20;48.53;;;25.15;;
75358;SDS011;64046;51.978;5.934;2024-03-06T10:45:54;58.17;;;27.85;;
75358;SDS011;64046;51.978;5.934;2024-03-06T10:48:30;53.80;;;25.33;;
75358;SDS011;64046;51.978;5.934;2024-03-06T10:51:03;47.83;;;25.30;;
75358;SDS011;64046;51.978;5.934;2024-03-06T10:53:36;54.63;;;28.90;;
75358;SDS011;64046;51.978;5.934;2024-03-06T10:56:08;53.28;;;25.08;;
75358;SDS011;64046;51.978;5.934;2024-03-06T10:58:38;48.72;;;24.63;;
75358;SDS011;64046;51.978;5.934;2024-03-06T11:01:10;51.63;;;26.45;;
75358;SDS011;64046;51.978;5.934;2024-03-06T11:03:40;51.53;;;25.52;;
75358;SDS011;64046;51.978;5.934;2024-03-06T11:06:13;50.58;;;25.23;;
75358;SDS011;64046;51.978;5.934;2024-03-06T11:08:43;62.75;;;30.55;;
75358;SDS011;64046;51.978;5.934;2024-03-06T11:11:20;49.33;;;26.88;;
75358;SDS011;64046;51.978;5.934;2024-03-06T11:13:54;45.45;;;24.63;;
75358;SDS011;64046;51.978;5.934;2024-03-06T11:16:27;67.38;;;31.90;;
75358;SDS011;64046;51.978;5.934;2024-03-06T11:19:06;63.03;;;31.92;;
75358;SDS011;64046;51.978;5.934;2024-03-06T11:21:47;58.97;;;28.27;;
75358;SDS011;64046;51.978;5.934;2024-03-06T11:24:17;51.35;;;26.55;;
75358;SDS011;64046;51.978;5.934;2024-03-06T11:26:48;54.22;;;26.80;;
75358;SDS011;64046;51.978;5.934;2024-03-06T11:29:20;47.65;;;24.92;;
75358;SDS011;64046;51.978;5.934;2024-03-06T11:31:57;59.08;;;28.35;;
75358;SDS011;64046;51.978;5.934;2024-03-06T11:34:29;57.30;;;27.77;;
75358;SDS011;64046;51.978;5.934;2024-03-06T11:37:02;56.38;;;27.45;;
75358;SDS011;64046;51.978;5.934;2024-03-06T11:39:35;48.20;;;25.65;;
75358;SDS011;64046;51.978;5.934;2024-03-06T11:42:06;57.70;;;26.70;;
75358;SDS011;64046;51.978;5.934;2024-03-06T11:44:41;48.65;;;25.52;;
75358;SDS011;64046;51.978;5.934;2024-03-06T11:47:23;51.60;;;28.55;;
75358;SDS011;64046;51.978;5.934;2024-03-06T11:49:53;43.75;;;24.25;;
75358;SDS011;64046;51.978;5.934;2024-03-06T11:52:25;52.53;;;27.02;;
75358;SDS011;64046;51.978;5.934;2024-03-06T11:54:56;43.70;;;25.25;;
75358;SDS011;64046;51.978;5.934;2024-03-06T11:57:26;50.50;;;26.08;;
75358;SDS011;64046;51.978;5.934;2024-03-06T12:00:02;47.28;;;26.40;;
75358;SDS011;64046;51.978;5.934;2024-03-06T12:02:33;52.05;;;27.33;;
75358;SDS011;64046;51.978;5.934;2024-03-06T12:05:02;58.35;;;28.98;;
75358;SDS011;64046;51.978;5.934;2024-03-06T12:07:47;44.92;;;24.85;;
75358;SDS011;64046;51.978;5.934;2024-03-06T12:10:17;59.00;;;28.75;;
75358;SDS011;64046;51.978;5.934;2024-03-06T12:12:46;46.47;;;26.17;;
75358;SDS011;64046;51.978;5.934;2024-03-06T12:15:16;47.22;;;25.35;;
75358;SDS011;64046;51.978;5.934;2024-03-06T12:17:47;47.42;;;26.10;;
75358;SDS011;64046;51.978;5.934;2024-03-06T12:20:17;42.70;;;25.05;;
75358;SDS011;64046;51.978;5.934;2024-03-06T12:22:51;51.22;;;29.05;;
75358;SDS011;64046;51.978;5.934;2024-03-06T12:25:22;49.05;;;27.27;;
75358;SDS011;64046;51.978;5.934;2024-03-06T12:27:53;42.40;;;23.40;;
75358;SDS011;64046;51.978;5.934;2024-03-06T12:30:23;49.13;;;26.70;;
75358;SDS011;64046;51.978;5.934;2024-03-06T12:32:56;41.08;;;23.33;;
75358;SDS011;64046;51.978;5.934;2024-03-06T12:35:26;38.45;;;22.73;;
75358;SDS011;64046;51.978;5.934;2024-03-06T12:37:58;43.67;;;23.23;;
75358;SDS011;64046;51.978;5.934;2024-03-06T12:40:30;51.42;;;28.50;;
75358;SDS011;64046;51.978;5.934;2024-03-06T12:42:59;51.42;;;28.10;;
75358;SDS011;64046;51.978;5.934;2024-03-06T12:45:30;46.78;;;26.33;;
75358;SDS011;64046;51.978;5.934;2024-03-06T12:47:59;47.38;;;26.42;;
75358;SDS011;64046;51.978;5.934;2024-03-06T12:50:29;50.53;;;27.23;;
75358;SDS011;64046;51.978;5.934;2024-03-06T12:53:01;41.15;;;23.52;;
75358;SDS011;64046;51.978;5.934;2024-03-06T12:55:30;35.38;;;21.30;;
75358;SDS011;64046;51.978;5.934;2024-03-06T12:58:01;35.90;;;21.90;;
75358;SDS011;64046;51.978;5.934;2024-03-06T13:00:31;44.58;;;24.23;;
75358;SDS011;64046;51.978;5.934;2024-03-06T13:03:00;44.20;;;25.13;;
75358;SDS011;64046;51.978;5.934;2024-03-06T13:05:30;41.20;;;24.27;;
75358;SDS011;64046;51.978;5.934;2024-03-06T13:08:02;38.38;;;21.92;;
75358;SDS011;64046;51.978;5.934;2024-03-06T13:10:32;43.13;;;25.10;;
75358;SDS011;64046;51.978;5.934;2024-03-06T13:13:01;35.90;;;21.63;;
75358;SDS011;64046;51.978;5.934;2024-03-06T13:15:32;32.97;;;19.33;;
75358;SDS011;64046;51.978;5.934;2024-03-06T13:18:04;36.35;;;19.90;;
75358;SDS011;64046;51.978;5.934;2024-03-06T13:20:34;32.05;;;19.35;;
75358;SDS011;64046;51.978;5.934;2024-03-06T13:23:06;28.58;;;17.00;;
75358;SDS011;64046;51.978;5.934;2024-03-06T13:25:35;24.08;;;14.40;;
75358;SDS011;64046;51.978;5.934;2024-03-06T13:28:04;26.63;;;15.73;;
75358;SDS011;64046;51.978;5.934;2024-03-06T13:30:34;30.98;;;18.85;;
75358;SDS011;64046;51.978;5.934;2024-03-06T13:33:04;29.10;;;17.88;;
75358;SDS011;64046;51.978;5.934;2024-03-06T13:35:34;29.30;;;16.92;;
75358;SDS011;64046;51.978;5.934;2024-03-06T13:38:06;23.90;;;16.02;;
75358;SDS011;64046;51.978;5.934;2024-03-06T13:40:36;22.55;;;14.60;;
75358;SDS011;64046;51.978;5.934;2024-03-06T13:43:05;20.08;;;13.63;;
75358;SDS011;64046;51.978;5.934;2024-03-06T13:45:36;22.85;;;14.38;;
75358;SDS011;64046;51.978;5.934;2024-03-06T13:48:13;22.17;;;13.65;;
75358;SDS011;64046;51.978;5.934;2024-03-06T13:50:45;25.27;;;14.63;;
75358;SDS011;64046;51.978;5.934;2024-03-06T13:53:17;19.23;;;12.15;;
75358;SDS011;64046;51.978;5.934;2024-03-06T13:55:46;22.92;;;11.70;;
75358;SDS011;64046;51.978;5.934;2024-03-06T13:58:16;19.42;;;12.23;;
75358;SDS011;64046;51.978;5.934;2024-03-06T14:00:45;17.58;;;11.48;;
75358;SDS011;64046;51.978;5.934;2024-03-06T14:03:14;21.20;;;13.25;;
75358;SDS011;64046;51.978;5.934;2024-03-06T14:05:44;20.50;;;12.90;;
75358;SDS011;64046;51.978;5.934;2024-03-06T14:08:13;21.05;;;12.68;;
75358;SDS011;64046;51.978;5.934;2024-03-06T14:10:45;18.90;;;10.95;;
75358;SDS011;64046;51.978;5.934;2024-03-06T14:13:15;18.45;;;10.15;;
75358;SDS011;64046;51.978;5.934;2024-03-06T14:15:44;15.98;;;9.27;;
75358;SDS011;64046;51.978;5.934;2024-03-06T14:18:14;15.88;;;9.20;;
75358;SDS011;64046;51.978;5.934;2024-03-06T14:20:43;18.20;;;11.40;;
75358;SDS011;64046;51.978;5.934;2024-03-06T14:23:13;18.08;;;10.80;;
75358;SDS011;64046;51.978;5.934;2024-03-06T14:25:42;20.75;;;12.57;;
75358;SDS011;64046;51.978;5.934;2024-03-06T14:28:15;19.33;;;12.25;;
75358;SDS011;64046;51.978;5.934;2024-03-06T14:30:44;20.75;;;11.50;;
75358;SDS011;64046;51.978;5.934;2024-03-06T14:33:16;18.08;;;10.95;;
75358;SDS011;64046;51.978;5.934;2024-03-06T14:35:45;17.88;;;11.55;;
75358;SDS011;64046;51.978;5.934;2024-03-06T14:38:15;17.83;;;10.60;;
75358;SDS011;64046;51.978;5.934;2024-03-06T14:40:47;14.48;;;9.18;;